Archival Weather

Bridgeport/Sikorsky

Bridgeport, Connecticut (KBDR)

Report from: Friday, February 23, 2024 5:52 PM EST
Current time: Wednesday, May 29, 2024 7:24 PM EDT

Current weather – Weather history – Daily summaries
Weather forecast

Temperature5.6°C (42.1°F)
Dew point3.3°C (37.9°F)
Winds Calm
Visibility10 mi. (16.1 km)
Altimeter29.45 in.Hg (997 mB)
Relative humidity85 %
Density altitude-467 ft. (-142 m)
Sea-level pressure99.7 kPa (997 mB, 29.44 in.Hg)
Remarks Fully automated report
System requires maintenance
Automated weather observing station with precipitation discriminator
Flight conditions Visual Meteorological Conditions
Raw dataKBDR 232252Z AUTO 00000KT 10SM 06/03 A2945 RMK AO2 SLP971 T00560033 $
An error has occurred. This application may no longer respond until reloaded. Reload 🗙